createdAt,value
2022-09-04T00:00:35.878Z,94.99
2022-09-04T00:01:35.874Z,94.89
2022-09-04T00:02:35.888Z,94.79
2022-09-04T00:03:35.934Z,94.48
2022-09-04T00:04:35.878Z,94.48
2022-09-04T00:05:35.838Z,94.79
2022-09-04T00:06:35.803Z,95.03
2022-09-04T00:07:35.845Z,95.14
2022-09-04T00:08:35.810Z,95.34
2022-09-04T00:09:35.795Z,95.54
2022-09-04T00:10:35.750Z,95.74
2022-09-04T00:11:35.756Z,95.84
2022-09-04T00:12:35.729Z,95.84
2022-09-04T00:13:35.755Z,96.04
2022-09-04T00:14:35.719Z,96.34
2022-09-04T00:15:35.679Z,96.65
2022-09-04T00:16:35.723Z,96.75
2022-09-04T00:17:35.660Z,96.85
2022-09-04T00:18:35.675Z,96.95
2022-09-04T00:19:35.759Z,97.05
2022-09-04T00:20:35.617Z,97.01
2022-09-04T00:21:35.606Z,96.91
2022-09-04T00:22:35.580Z,96.50
2022-09-04T00:23:35.579Z,96.30
2022-09-04T00:24:35.595Z,96.00
2022-09-04T00:25:36.038Z,95.79
2022-09-04T00:26:35.528Z,95.64
2022-09-04T00:27:36.016Z,95.54
2022-09-04T00:28:35.511Z,95.54
2022-09-04T00:29:35.532Z,95.64
2022-09-04T00:30:35.619Z,95.79
2022-09-04T00:31:35.495Z,95.90
2022-09-04T00:32:35.501Z,95.90
2022-09-04T00:33:35.444Z,95.79
2022-09-04T00:34:35.441Z,95.49
2022-09-04T00:35:35.447Z,95.29
2022-09-04T00:36:35.412Z,94.99
2022-09-04T00:37:35.414Z,95.09
2022-09-04T00:38:35.395Z,95.03
2022-09-04T00:39:35.438Z,95.03
2022-09-04T00:40:35.360Z,95.23
2022-09-04T00:41:35.339Z,95.43
2022-09-04T00:42:35.320Z,95.64
2022-09-04T00:43:35.325Z,95.84
2022-09-04T00:44:35.367Z,95.94
2022-09-04T00:45:35.330Z,95.94
2022-09-04T00:46:35.289Z,96.04
2022-09-04T00:47:35.256Z,95.84
2022-09-04T00:48:35.237Z,95.74
2022-09-04T00:49:35.297Z,95.43
2022-09-04T00:50:35.211Z,95.23
2022-09-04T00:51:35.227Z,95.34
2022-09-04T00:52:36.727Z,95.43
2022-09-04T00:53:35.193Z,95.48
2022-09-04T00:54:35.164Z,95.48
2022-09-04T00:55:35.160Z,95.48
2022-09-04T00:56:35.143Z,95.78
2022-09-04T00:57:35.151Z,96.19
2022-09-04T00:58:35.102Z,96.54
2022-09-04T00:59:35.100Z,96.64
2022-09-04T01:00:35.090Z,96.74
2022-09-04T01:01:36.729Z,96.84
2022-09-04T01:02:35.176Z,96.94
2022-09-04T01:03:35.051Z,97.14
2022-09-04T01:04:35.138Z,97.25
2022-09-04T01:05:35.025Z,97.30
2022-09-04T01:06:35.034Z,97.30
2022-09-04T01:07:35.012Z,97.10
2022-09-04T01:08:34.981Z,97.00
2022-09-04T01:09:34.953Z,96.89
2022-09-04T01:10:34.945Z,96.80
2022-09-04T01:11:34.961Z,96.59
2022-09-04T01:12:34.948Z,96.39
2022-09-04T01:13:35.262Z,96.39
2022-09-04T01:14:34.895Z,96.49
2022-09-04T01:15:34.878Z,96.80
2022-09-04T01:16:34.947Z,96.69
2022-09-04T01:17:35.012Z,96.59
2022-09-04T01:18:34.853Z,96.49
2022-09-04T01:19:34.855Z,96.49
2022-09-04T01:20:34.812Z,96.69
2022-09-04T01:21:34.796Z,96.59
2022-09-04T01:22:34.803Z,96.74
2022-09-04T01:23:34.958Z,96.74
2022-09-04T01:24:34.780Z,96.84
2022-09-04T01:25:34.754Z,96.94
2022-09-04T01:26:34.731Z,97.10
2022-09-04T01:27:34.737Z,97.20
2022-09-04T01:28:34.711Z,97.10
2022-09-04T01:29:34.719Z,97.00
2022-09-04T01:30:34.707Z,97.00
2022-09-04T01:31:34.687Z,97.00
2022-09-04T01:32:34.640Z,97.00
2022-09-04T01:33:34.654Z,97.05
2022-09-04T01:34:34.662Z,96.94
2022-09-04T01:35:34.618Z,97.14
2022-09-04T01:36:34.598Z,97.25
2022-09-04T01:37:34.603Z,97.34
2022-09-04T01:38:34.578Z,97.55
2022-09-04T01:39:34.587Z,97.65
2022-09-04T01:40:35.749Z,97.34
2022-09-04T01:41:38.368Z,96.84
2022-09-04T01:42:34.518Z,96.54
2022-09-04T01:43:34.579Z,96.03
2022-09-04T01:44:34.518Z,95.87
2022-09-04T01:45:34.524Z,95.78
2022-09-04T01:46:34.485Z,95.57
2022-09-04T01:47:34.476Z,95.51
2022-09-04T01:48:34.600Z,95.62
2022-09-04T01:49:34.451Z,95.92
2022-09-04T01:50:34.417Z,96.12
2022-09-04T01:51:34.397Z,96.47
2022-09-04T01:52:34.396Z,96.78
2022-09-04T01:53:34.400Z,96.83
2022-09-04T01:54:34.537Z,96.98
2022-09-04T01:55:34.360Z,97.18
2022-09-04T01:56:34.477Z,97.34
2022-09-04T01:57:34.441Z,97.44
2022-09-04T01:58:34.320Z,97.64
2022-09-04T01:59:34.329Z,97.44
2022-09-04T02:00:34.311Z,97.24
2022-09-04T02:01:34.333Z,97.09
2022-09-04T02:02:34.316Z,96.98
2022-09-04T02:03:34.289Z,96.98
2022-09-04T02:04:34.231Z,96.89
2022-09-04T02:05:34.228Z,96.89
2022-09-04T02:06:34.208Z,96.89
2022-09-04T02:07:34.209Z,96.48
2022-09-04T02:08:34.203Z,96.18
2022-09-04T02:09:34.163Z,96.08
2022-09-04T02:10:34.171Z,96.18
2022-09-04T02:11:34.132Z,96.42
2022-09-04T02:12:34.164Z,96.53
2022-09-04T02:13:34.117Z,96.53
2022-09-04T02:14:34.114Z,96.53
2022-09-04T02:15:34.082Z,96.63
2022-09-04T02:16:34.187Z,96.83
2022-09-04T02:17:34.123Z,97.14
2022-09-04T02:18:34.032Z,97.34
2022-09-04T02:19:34.029Z,97.34
2022-09-04T02:20:34.020Z,96.93
2022-09-04T02:21:34.007Z,96.53
2022-09-04T02:22:34.026Z,96.53
2022-09-04T02:23:33.982Z,96.42
2022-09-04T02:24:33.955Z,96.47
2022-09-04T02:25:33.950Z,96.57
2022-09-04T02:26:34.001Z,96.78
2022-09-04T02:27:33.953Z,96.88
2022-09-04T02:28:33.913Z,96.98
2022-09-04T02:29:33.913Z,97.08
2022-09-04T02:30:33.919Z,97.18
2022-09-04T02:31:33.922Z,97.28
2022-09-04T02:32:33.864Z,97.38
2022-09-04T02:33:33.979Z,97.38
2022-09-04T02:34:34.565Z,97.28
2022-09-04T02:35:33.834Z,97.14
2022-09-04T02:36:33.801Z,97.03
2022-09-04T02:37:33.827Z,96.83
2022-09-04T02:38:33.764Z,96.63
2022-09-04T02:39:33.770Z,96.53
2022-09-04T02:40:33.757Z,96.53
2022-09-04T02:41:33.759Z,96.53
2022-09-04T02:42:33.766Z,96.63
2022-09-04T02:43:34.581Z,96.63
2022-09-04T02:44:33.702Z,96.42
2022-09-04T02:45:33.689Z,96.42
2022-09-04T02:46:33.755Z,96.33
2022-09-04T02:47:33.668Z,96.37
2022-09-04T02:48:33.678Z,96.07
2022-09-04T02:49:33.620Z,95.97
2022-09-04T02:50:33.637Z,95.76
2022-09-04T02:51:39.490Z,96.01
2022-09-04T02:52:41.001Z,96.11
2022-09-04T02:53:33.583Z,96.11
2022-09-04T02:54:33.585Z,96.26
2022-09-04T02:55:33.707Z,96.46
2022-09-04T02:56:33.546Z,96.66
2022-09-04T02:57:33.517Z,96.71
2022-09-04T02:58:33.524Z,96.61
2022-09-04T02:59:33.486Z,96.96
2022-09-04T03:00:33.518Z,97.47
2022-09-04T03:01:33.489Z,97.81
2022-09-04T03:02:33.499Z,98.02
2022-09-04T03:03:33.537Z,98.43
2022-09-04T03:04:33.439Z,98.93
2022-09-04T03:05:33.417Z,99.33
2022-09-04T03:06:33.449Z,99.60
2022-09-04T03:07:33.393Z,99.69
2022-09-04T03:08:36.414Z,99.69
2022-09-04T03:09:33.364Z,99.85
2022-09-04T03:10:33.340Z,99.95
2022-09-04T03:11:34.017Z,99.95
2022-09-04T03:12:33.324Z,99.99
2022-09-04T03:13:33.302Z,99.99
2022-09-04T03:14:33.294Z,99.70
2022-09-04T03:15:33.301Z,99.40
2022-09-04T03:16:33.391Z,98.99
2022-09-04T03:17:33.271Z,98.28
2022-09-04T03:18:33.279Z,97.94
2022-09-04T03:19:33.233Z,97.63
2022-09-04T03:20:33.210Z,97.23
2022-09-04T03:21:33.246Z,97.02
2022-09-04T03:22:33.207Z,96.92
2022-09-04T03:23:33.176Z,96.82
2022-09-04T03:24:33.179Z,96.72
2022-09-04T03:25:33.148Z,96.87
2022-09-04T03:26:33.193Z,97.02
2022-09-04T03:27:33.148Z,97.07
2022-09-04T03:28:33.126Z,97.17
2022-09-04T03:29:33.105Z,97.27
2022-09-04T03:30:33.073Z,97.38
2022-09-04T03:31:33.115Z,97.58
2022-09-04T03:32:33.089Z,97.78
2022-09-04T03:33:33.036Z,97.88
2022-09-04T03:34:33.053Z,97.88
2022-09-04T03:35:33.033Z,97.67
2022-09-04T03:36:33.038Z,97.58
2022-09-04T03:37:33.015Z,97.27
2022-09-04T03:38:32.997Z,96.77
2022-09-04T03:39:33.042Z,96.46
2022-09-04T03:40:32.944Z,96.26
2022-09-04T03:41:33.012Z,96.46
2022-09-04T03:42:32.927Z,96.56
2022-09-04T03:43:32.919Z,96.66
2022-09-04T03:44:32.897Z,96.66
2022-09-04T03:45:32.909Z,96.87
2022-09-04T03:46:32.953Z,96.87
2022-09-04T03:47:32.875Z,96.97
2022-09-04T03:48:32.868Z,96.87
2022-09-04T03:49:32.878Z,96.87
2022-09-04T03:50:32.833Z,96.66
2022-09-04T03:51:32.836Z,96.56
2022-09-04T03:52:32.797Z,96.46
2022-09-04T03:53:32.778Z,96.46
2022-09-04T03:54:32.891Z,96.31
2022-09-04T03:55:32.756Z,96.22
2022-09-04T03:56:32.756Z,96.11
2022-09-04T03:57:32.722Z,96.01
2022-09-04T03:58:32.720Z,96.11
2022-09-04T03:59:32.718Z,96.11
2022-09-04T04:00:32.746Z,96.11
2022-09-04T04:01:32.695Z,96.01
2022-09-04T04:02:32.704Z,96.22
2022-09-04T04:03:32.657Z,96.22
2022-09-04T04:04:32.657Z,96.31
2022-09-04T04:05:32.618Z,96.42
2022-09-04T04:06:32.962Z,96.51
2022-09-04T04:07:32.628Z,96.51
2022-09-04T04:08:32.582Z,96.42
2022-09-04T04:09:32.619Z,96.17
2022-09-04T04:10:32.574Z,95.81
2022-09-04T04:11:32.557Z,95.00
2022-09-04T04:12:32.585Z,94.39
2022-09-04T04:13:32.520Z,93.73
2022-09-04T04:14:32.536Z,93.73
2022-09-04T04:15:33.040Z,94.18
2022-09-04T04:16:32.540Z,94.58
2022-09-04T04:17:32.476Z,94.89
2022-09-04T04:18:32.438Z,95.19
2022-09-04T04:19:32.448Z,95.39
2022-09-04T04:20:32.437Z,95.59
2022-09-04T04:21:32.426Z,95.79
2022-09-04T04:22:32.413Z,96.10
2022-09-04T04:23:32.372Z,96.20
2022-09-04T04:24:32.381Z,96.41
2022-09-04T04:25:32.365Z,96.51
2022-09-04T04:26:32.348Z,96.46
2022-09-04T04:27:32.346Z,96.46
2022-09-04T04:28:32.307Z,96.46
2022-09-04T04:29:32.372Z,96.56
2022-09-04T04:30:32.311Z,96.66
2022-09-04T04:31:32.368Z,96.66
2022-09-04T04:32:32.270Z,96.77
2022-09-04T04:33:32.362Z,96.77
2022-09-04T04:34:32.255Z,96.66
2022-09-04T04:35:32.238Z,96.66
2022-09-04T04:36:32.246Z,96.56
2022-09-04T04:37:32.215Z,96.46
2022-09-04T04:38:32.193Z,96.42
2022-09-04T04:39:32.188Z,96.42
2022-09-04T04:40:32.181Z,96.42
2022-09-04T04:41:32.185Z,96.42
2022-09-04T04:42:32.151Z,96.22
2022-09-04T04:43:32.158Z,96.22
2022-09-04T04:44:32.108Z,96.11
2022-09-04T04:45:32.196Z,96.01
2022-09-04T04:46:32.170Z,95.91
2022-09-04T04:47:32.164Z,95.81
2022-09-04T04:48:32.048Z,95.71
2022-09-04T04:49:32.040Z,95.71
2022-09-04T04:50:32.633Z,95.81
2022-09-04T04:51:32.035Z,95.91
2022-09-04T04:52:32.078Z,96.01
2022-09-04T04:53:31.982Z,96.22
2022-09-04T04:54:31.971Z,96.42
2022-09-04T04:55:31.942Z,96.42
2022-09-04T04:56:31.955Z,96.51
2022-09-04T04:57:31.988Z,96.42
2022-09-04T04:58:31.920Z,96.42
2022-09-04T04:59:31.908Z,96.62
2022-09-04T05:00:31.911Z,96.51
2022-09-04T05:01:32.056Z,96.31
2022-09-04T05:02:31.993Z,96.22
2022-09-04T05:03:32.220Z,96.22
2022-09-04T05:04:31.862Z,96.11
2022-09-04T05:05:31.822Z,96.01
2022-09-04T05:06:31.823Z,95.91
2022-09-04T05:07:31.808Z,96.01
2022-09-04T05:08:31.820Z,96.11
2022-09-04T05:09:31.785Z,96.22
2022-09-04T05:10:31.768Z,96.42
2022-09-04T05:11:31.744Z,96.42
2022-09-04T05:12:31.768Z,96.42
2022-09-04T05:13:31.721Z,96.42
2022-09-04T05:14:31.724Z,96.62
2022-09-04T05:15:31.682Z,96.82
2022-09-04T05:16:31.773Z,96.92
2022-09-04T05:17:31.676Z,97.13
2022-09-04T05:18:31.670Z,97.13
2022-09-04T05:19:31.658Z,97.23
2022-09-04T05:20:31.637Z,97.23
2022-09-04T05:21:31.603Z,97.13
2022-09-04T05:22:34.348Z,97.23
2022-09-04T05:23:31.597Z,97.33
2022-09-04T05:24:31.613Z,97.33
2022-09-04T05:25:31.570Z,97.33
2022-09-04T05:26:31.543Z,97.33
2022-09-04T05:27:31.527Z,97.43
2022-09-04T05:28:31.551Z,97.43
2022-09-04T05:29:32.700Z,97.43
2022-09-04T05:30:31.528Z,97.43
2022-09-04T05:31:32.542Z,97.43
2022-09-04T05:32:31.498Z,97.43
2022-09-04T05:33:31.458Z,97.43
2022-09-04T05:34:31.506Z,97.43
2022-09-04T05:35:35.367Z,97.53
2022-09-04T05:36:31.435Z,97.63
2022-09-04T05:37:31.430Z,97.83
2022-09-04T05:38:31.463Z,97.94
2022-09-04T05:39:31.417Z,98.03
2022-09-04T05:40:31.391Z,98.03
2022-09-04T05:41:31.348Z,98.24
2022-09-04T05:42:31.343Z,98.44
2022-09-04T05:43:31.330Z,98.50
2022-09-04T05:44:31.366Z,98.60
2022-09-04T05:45:31.575Z,98.70
2022-09-04T05:46:31.321Z,98.80
2022-09-04T05:47:31.288Z,98.90
2022-09-04T05:48:31.244Z,98.90
2022-09-04T05:49:31.232Z,99.01
2022-09-04T05:50:31.240Z,98.96
2022-09-04T05:51:31.288Z,99.05
2022-09-04T05:52:31.231Z,99.16
2022-09-04T05:53:31.202Z,99.16
2022-09-04T05:54:31.182Z,99.05
2022-09-04T05:55:31.161Z,99.05
2022-09-04T05:56:31.402Z,98.96
2022-09-04T05:57:31.117Z,98.96
2022-09-04T05:58:31.125Z,98.85
2022-09-04T05:59:31.110Z,98.85
2022-09-04T06:00:31.084Z,98.96
2022-09-04T06:01:31.151Z,98.96
2022-09-04T06:02:31.122Z,98.96
2022-09-04T06:03:31.092Z,99.05
2022-09-04T06:04:31.064Z,99.01
2022-09-04T06:05:31.034Z,99.11
2022-09-04T06:06:31.017Z,99.11
2022-09-04T06:07:31.047Z,99.11
2022-09-04T06:08:31.109Z,99.11
2022-09-04T06:09:30.994Z,99.11
2022-09-04T06:10:30.999Z,99.11
2022-09-04T06:11:30.949Z,99.21
2022-09-04T06:12:30.943Z,99.32
2022-09-04T06:13:30.986Z,99.32
2022-09-04T06:14:30.927Z,99.27
2022-09-04T06:15:30.888Z,99.16
2022-09-04T06:16:30.957Z,99.27
2022-09-04T06:17:30.855Z,99.27
2022-09-04T06:18:30.867Z,99.27
2022-09-04T06:19:30.880Z,99.27
2022-09-04T06:20:30.844Z,99.27
2022-09-04T06:21:30.812Z,99.27
2022-09-04T06:22:30.794Z,99.27
2022-09-04T06:23:30.825Z,99.27
2022-09-04T06:24:30.794Z,99.27
2022-09-04T06:25:30.770Z,99.27
2022-09-04T06:26:30.770Z,99.16
2022-09-04T06:27:30.780Z,99.12
2022-09-04T06:28:30.725Z,98.92
2022-09-04T06:29:30.738Z,98.86
2022-09-04T06:30:30.680Z,98.92
2022-09-04T06:31:30.749Z,98.92
2022-09-04T06:32:30.940Z,98.92
2022-09-04T06:33:30.658Z,98.92
2022-09-04T06:34:30.791Z,99.02
2022-09-04T06:35:30.655Z,99.22
2022-09-04T06:36:30.614Z,99.22
2022-09-04T06:37:30.621Z,99.32
2022-09-04T06:38:30.651Z,99.22
2022-09-04T06:39:30.729Z,99.32
2022-09-04T06:40:30.578Z,99.27
2022-09-04T06:41:30.555Z,99.27
2022-09-04T06:42:31.080Z,99.38
2022-09-04T06:43:30.545Z,99.48
2022-09-04T06:44:30.511Z,99.48
2022-09-04T06:45:30.504Z,99.58
2022-09-04T06:46:30.585Z,99.58
2022-09-04T06:47:30.716Z,99.68
2022-09-04T06:48:30.496Z,99.78
2022-09-04T06:49:30.472Z,99.78
2022-09-04T06:50:30.446Z,99.68
2022-09-04T06:51:32.264Z,99.68
2022-09-04T06:52:30.432Z,99.78
2022-09-04T06:53:31.435Z,99.78
2022-09-04T06:54:32.206Z,99.78
2022-09-04T06:55:30.351Z,99.78
2022-09-04T06:56:30.347Z,99.88
2022-09-04T06:57:30.441Z,99.98
2022-09-04T06:58:30.351Z,99.99
2022-09-04T06:59:31.078Z,99.99
2022-09-04T07:00:30.307Z,99.99
2022-09-04T07:01:30.427Z,99.99
2022-09-04T07:02:30.373Z,99.99
2022-09-04T07:03:30.348Z,99.99
2022-09-04T07:04:30.270Z,99.99
2022-09-04T07:05:30.245Z,99.99
2022-09-04T07:06:30.226Z,99.88
2022-09-04T07:07:30.214Z,99.74
2022-09-04T07:08:30.180Z,99.64
2022-09-04T07:09:30.188Z,99.54
2022-09-04T07:10:30.156Z,99.33
2022-09-04T07:11:30.139Z,99.24
2022-09-04T07:12:31.080Z,99.13
2022-09-04T07:13:30.131Z,98.99
2022-09-04T07:14:30.201Z,98.68
2022-09-04T07:15:30.135Z,98.48
2022-09-04T07:16:30.103Z,98.58
2022-09-04T07:17:30.065Z,98.48
2022-09-04T07:18:30.063Z,98.48
2022-09-04T07:19:30.058Z,98.38
2022-09-04T07:20:30.220Z,98.48
2022-09-04T07:21:30.381Z,98.18
2022-09-04T07:22:30.165Z,98.28
2022-09-04T07:23:40.985Z,98.18
2022-09-04T07:24:29.976Z,98.13
2022-09-04T07:25:30.000Z,98.24
2022-09-04T07:26:29.928Z,98.44
2022-09-04T07:27:29.941Z,98.03
2022-09-04T07:28:29.937Z,97.58
2022-09-04T07:29:29.909Z,97.28
2022-09-04T07:30:29.928Z,97.18
2022-09-04T07:31:29.919Z,97.18
2022-09-04T07:32:29.872Z,97.24
2022-09-04T07:33:29.874Z,96.53
2022-09-04T07:34:29.851Z,95.83
2022-09-04T07:35:29.851Z,95.62
2022-09-04T07:36:31.825Z,95.48
2022-09-04T07:37:29.791Z,95.58
2022-09-04T07:38:29.775Z,95.18
2022-09-04T07:39:29.852Z,95.28
2022-09-04T07:40:30.850Z,95.23
2022-09-04T07:41:29.758Z,95.13
2022-09-04T07:42:31.058Z,94.43
2022-09-04T07:43:29.716Z,94.83
2022-09-04T07:44:29.715Z,94.68
2022-09-04T07:45:29.704Z,94.59
2022-09-04T07:46:29.770Z,93.43
2022-09-04T07:47:29.745Z,92.63
2022-09-04T07:48:29.782Z,92.33
2022-09-04T07:49:29.635Z,92.13
2022-09-04T07:50:29.626Z,92.29
2022-09-04T07:51:29.609Z,91.88
2022-09-04T07:52:29.630Z,91.94
2022-09-04T07:53:29.704Z,90.94
2022-09-04T07:54:29.617Z,89.89
2022-09-04T07:55:29.569Z,89.49
2022-09-04T07:56:29.600Z,89.54
2022-09-04T07:57:29.999Z,89.54
2022-09-04T07:58:29.531Z,87.50
2022-09-04T07:59:29.527Z,87.50
2022-09-04T08:00:29.496Z,87.86
2022-09-04T08:01:29.557Z,86.05
2022-09-04T08:02:29.464Z,85.96
2022-09-04T08:03:30.138Z,85.46
2022-09-04T08:04:29.469Z,84.75
2022-09-04T08:05:29.438Z,85.75
2022-09-04T08:06:29.849Z,86.05
2022-09-04T08:07:29.409Z,85.21
2022-09-04T08:08:29.370Z,84.51
2022-09-04T08:09:29.428Z,84.75
2022-09-04T08:10:29.387Z,85.46
2022-09-04T08:11:29.381Z,85.71
2022-09-04T08:12:29.339Z,84.21
2022-09-04T08:13:29.368Z,84.31
2022-09-04T08:14:29.805Z,84.17
2022-09-04T08:15:29.374Z,84.47
2022-09-04T08:16:29.303Z,84.47
2022-09-04T08:17:29.269Z,83.93
2022-09-04T08:18:29.254Z,82.49
2022-09-04T08:19:29.238Z,81.39
2022-09-04T08:20:29.243Z,82.29
2022-09-04T08:21:29.236Z,81.56
2022-09-04T08:22:29.214Z,82.91
2022-09-04T08:23:29.223Z,82.01
2022-09-04T08:24:29.181Z,80.02
2022-09-04T08:25:29.211Z,81.57
2022-09-04T08:26:29.179Z,79.38
2022-09-04T08:27:29.145Z,78.08
2022-09-04T08:28:29.166Z,78.58
2022-09-04T08:29:29.155Z,79.38
2022-09-04T08:30:29.094Z,78.58
2022-09-04T08:31:29.228Z,79.48
2022-09-04T08:32:36.727Z,78.88
2022-09-04T08:33:29.073Z,79.17
2022-09-04T08:34:29.038Z,78.72
2022-09-04T08:35:29.087Z,81.01
2022-09-04T08:36:29.152Z,79.97
2022-09-04T08:37:29.021Z,79.08
2022-09-04T08:38:28.996Z,78.84
2022-09-04T08:39:29.009Z,78.04
2022-09-04T08:40:28.987Z,77.81
2022-09-04T08:41:28.968Z,77.21
2022-09-04T08:42:29.077Z,77.77
2022-09-04T08:43:28.932Z,76.77
2022-09-04T08:44:28.938Z,77.53
2022-09-04T08:45:28.961Z,75.20
2022-09-04T08:46:29.195Z,75.10
2022-09-04T08:47:28.899Z,74.17
2022-09-04T08:48:28.845Z,74.87
2022-09-04T08:49:28.865Z,73.77
2022-09-04T08:50:28.862Z,74.11
2022-09-04T08:51:28.874Z,75.34
2022-09-04T08:52:28.842Z,75.94
2022-09-04T08:53:28.807Z,75.94
2022-09-04T08:54:28.799Z,76.64
2022-09-04T08:55:28.868Z,75.60
2022-09-04T08:56:28.755Z,75.40
2022-09-04T08:57:28.752Z,74.80
2022-09-04T08:58:28.751Z,75.90
2022-09-04T08:59:28.728Z,75.64
2022-09-04T09:00:28.742Z,75.27
2022-09-04T09:01:28.947Z,75.37
2022-09-04T09:02:28.736Z,76.81
2022-09-04T09:03:28.689Z,76.87
2022-09-04T09:04:28.807Z,77.17
2022-09-04T09:05:28.696Z,76.93
2022-09-04T09:06:28.668Z,76.50
2022-09-04T09:07:28.628Z,74.67
2022-09-04T09:08:31.640Z,73.38
2022-09-04T09:09:28.650Z,73.57
2022-09-04T09:10:28.580Z,75.67
2022-09-04T09:11:28.555Z,72.98
2022-09-04T09:12:40.292Z,72.88
2022-09-04T09:13:28.566Z,73.38
2022-09-04T09:14:28.509Z,73.28
2022-09-04T09:15:28.498Z,73.87
2022-09-04T09:16:28.614Z,72.68
2022-09-04T09:17:34.514Z,73.81
2022-09-04T09:18:28.509Z,74.04
2022-09-04T09:19:28.464Z,73.25
2022-09-04T09:20:28.509Z,74.84
2022-09-04T09:21:28.435Z,74.54
2022-09-04T09:22:28.429Z,75.01
2022-09-04T09:23:28.519Z,73.87
2022-09-04T09:24:28.376Z,74.04
2022-09-04T09:25:29.210Z,71.51
2022-09-04T09:26:28.378Z,70.72
2022-09-04T09:27:28.359Z,71.15
2022-09-04T09:28:28.370Z,71.25
2022-09-04T09:29:28.330Z,71.45
2022-09-04T09:30:28.409Z,72.34
2022-09-04T09:31:28.294Z,69.96
2022-09-04T09:32:28.298Z,69.99
2022-09-04T09:33:28.656Z,70.09
2022-09-04T09:34:28.248Z,70.68
2022-09-04T09:35:28.291Z,70.95
2022-09-04T09:36:28.230Z,70.56
2022-09-04T09:37:28.281Z,69.13
2022-09-04T09:38:29.154Z,69.13
2022-09-04T09:39:28.381Z,66.61
2022-09-04T09:40:28.180Z,67.47
2022-09-04T09:41:28.167Z,66.15
2022-09-04T09:42:28.193Z,65.75
2022-09-04T09:43:28.177Z,66.44
2022-09-04T09:44:28.152Z,65.02
2022-09-04T09:45:28.113Z,65.06
2022-09-04T09:46:28.228Z,64.19
2022-09-04T09:47:28.131Z,66.48
2022-09-04T09:48:28.102Z,66.78
2022-09-04T09:49:28.146Z,66.08
2022-09-04T09:50:28.060Z,66.48
2022-09-04T09:51:28.035Z,66.18
2022-09-04T09:52:28.068Z,67.27
2022-09-04T09:53:28.048Z,65.75
2022-09-04T09:54:27.992Z,65.45
2022-09-04T09:55:28.033Z,66.35
2022-09-04T09:56:27.997Z,66.31
2022-09-04T09:57:33.489Z,66.22
2022-09-04T09:58:27.971Z,68.30
2022-09-04T09:59:27.958Z,65.99
2022-09-04T10:00:28.975Z,64.20
2022-09-04T10:01:28.027Z,64.16
2022-09-04T10:02:27.927Z,64.79
2022-09-04T10:03:27.930Z,65.91
2022-09-04T10:04:27.896Z,66.11
2022-09-04T10:05:27.884Z,67.77
2022-09-04T10:06:27.844Z,67.44
2022-09-04T10:07:27.961Z,64.03
2022-09-04T10:08:35.784Z,64.99
2022-09-04T10:09:28.307Z,66.45
2022-09-04T10:10:27.803Z,61.86
2022-09-04T10:11:28.185Z,61.96
2022-09-04T10:12:27.754Z,64.53
2022-09-04T10:13:27.754Z,64.34
2022-09-04T10:14:27.760Z,64.90
2022-09-04T10:15:27.743Z,63.09
2022-09-04T10:16:27.787Z,60.51
2022-09-04T10:17:27.703Z,60.88
2022-09-04T10:18:27.696Z,59.30
2022-09-04T10:19:27.731Z,61.27
2022-09-04T10:20:27.670Z,63.02
2022-09-04T10:21:27.670Z,58.97
2022-09-04T10:22:27.663Z,59.36
2022-09-04T10:23:27.628Z,60.45
2022-09-04T10:24:27.622Z,56.99
2022-09-04T10:25:27.594Z,59.06
2022-09-04T10:26:29.197Z,57.09
2022-09-04T10:27:27.564Z,57.39
2022-09-04T10:28:28.356Z,60.58
2022-09-04T10:29:27.585Z,58.95
2022-09-04T10:30:27.622Z,61.53
2022-09-04T10:31:27.525Z,59.28
2022-09-04T10:32:27.498Z,60.80
2022-09-04T10:33:27.703Z,59.70
2022-09-04T10:34:27.524Z,60.57
2022-09-04T10:35:27.466Z,61.56
2022-09-04T10:36:27.455Z,59.97
2022-09-04T10:37:27.449Z,60.07
2022-09-04T10:38:27.433Z,60.17
2022-09-04T10:39:27.456Z,59.88
2022-09-04T10:40:27.443Z,60.00
2022-09-04T10:41:27.395Z,60.70
2022-09-04T10:42:27.374Z,60.96
2022-09-04T10:43:27.349Z,59.78
2022-09-04T10:44:27.378Z,59.58
2022-09-04T10:45:27.480Z,59.67
2022-09-04T10:46:27.453Z,59.88
2022-09-04T10:47:27.302Z,60.47
2022-09-04T10:48:28.781Z,59.38
2022-09-04T10:49:27.285Z,60.20
2022-09-04T10:50:27.310Z,60.40
2022-09-04T10:51:27.269Z,62.02
2022-09-04T10:52:27.859Z,62.61
2022-09-04T10:53:27.263Z,61.22
2022-09-04T10:54:27.236Z,61.99
2022-09-04T10:55:27.269Z,61.59
2022-09-04T10:56:27.234Z,63.48
2022-09-04T10:57:27.192Z,62.15
2022-09-04T10:58:27.157Z,61.46
2022-09-04T10:59:27.227Z,61.46
2022-09-04T11:00:27.756Z,60.07
2022-09-04T11:01:27.181Z,61.23
2022-09-04T11:02:27.195Z,59.35
2022-09-04T11:03:27.126Z,60.07
2022-09-04T11:04:27.391Z,61.59
2022-09-04T11:05:27.094Z,60.23
2022-09-04T11:06:27.286Z,61.45
2022-09-04T11:07:28.815Z,62.94
2022-09-04T11:08:27.065Z,62.97
2022-09-04T11:09:28.023Z,62.47
2022-09-04T11:10:27.023Z,63.07
2022-09-04T11:11:26.989Z,63.37
2022-09-04T11:12:26.974Z,63.89
2022-09-04T11:13:27.101Z,63.40
2022-09-04T11:14:26.976Z,64.98
2022-09-04T11:15:27.013Z,63.13
2022-09-04T11:16:27.010Z,63.73
2022-09-04T11:17:26.914Z,62.23
2022-09-04T11:18:26.910Z,61.91
2022-09-04T11:19:26.930Z,62.70
2022-09-04T11:20:26.884Z,61.38
2022-09-04T11:21:26.866Z,59.69
2022-09-04T11:22:26.866Z,59.59
2022-09-04T11:23:27.166Z,59.86
2022-09-04T11:24:26.873Z,59.86
2022-09-04T11:25:27.114Z,59.09
2022-09-04T11:26:26.840Z,60.49
2022-09-04T11:27:27.091Z,60.98
2022-09-04T11:28:26.816Z,61.94
2022-09-04T11:29:26.782Z,60.66
2022-09-04T11:30:26.781Z,61.62
2022-09-04T11:31:26.794Z,60.23
2022-09-04T11:32:26.754Z,59.61
2022-09-04T11:33:26.787Z,59.70
2022-09-04T11:34:26.711Z,57.62
2022-09-04T11:35:26.728Z,57.35
2022-09-04T11:36:26.693Z,57.28
2022-09-04T11:37:26.689Z,57.38
2022-09-04T11:38:26.661Z,56.38
2022-09-04T11:39:26.672Z,56.81
2022-09-04T11:40:26.726Z,55.62
2022-09-04T11:41:26.806Z,55.65
2022-09-04T11:42:26.603Z,55.74
2022-09-04T11:43:27.016Z,57.73
2022-09-04T11:44:26.767Z,58.73
2022-09-04T11:45:26.637Z,59.72
2022-09-04T11:46:26.571Z,57.14
2022-09-04T11:47:26.527Z,56.41
2022-09-04T11:48:26.507Z,57.41
2022-09-04T11:49:26.670Z,57.04
2022-09-04T11:50:26.559Z,57.43
2022-09-04T11:51:26.520Z,58.26
2022-09-04T11:52:26.495Z,58.65
2022-09-04T11:53:26.469Z,58.65
2022-09-04T11:54:26.436Z,57.56
2022-09-04T11:55:26.448Z,57.66
2022-09-04T11:56:26.464Z,57.64
2022-09-04T11:57:26.435Z,55.52
2022-09-04T11:58:26.452Z,55.72
2022-09-04T11:59:26.537Z,55.49
2022-09-04T12:00:26.380Z,56.66
2022-09-04T12:01:26.411Z,55.17
2022-09-04T12:02:26.469Z,54.64
2022-09-04T12:03:26.381Z,54.45
2022-09-04T12:04:26.324Z,54.05
2022-09-04T12:05:26.320Z,54.22
2022-09-04T12:06:26.286Z,55.11
2022-09-04T12:07:26.358Z,54.60
2022-09-04T12:08:26.295Z,52.71
2022-09-04T12:09:26.313Z,53.01
2022-09-04T12:10:28.507Z,53.80
2022-09-04T12:11:26.259Z,54.49
2022-09-04T12:12:26.224Z,53.20
2022-09-04T12:13:26.270Z,54.39
2022-09-04T12:14:26.193Z,54.00
2022-09-04T12:15:26.216Z,52.51
2022-09-04T12:16:26.273Z,54.62
2022-09-04T12:17:26.211Z,53.20
2022-09-04T12:18:26.152Z,53.01
2022-09-04T12:19:26.152Z,54.52
2022-09-04T12:20:26.115Z,53.41
2022-09-04T12:21:26.445Z,53.01
2022-09-04T12:22:26.085Z,53.11
2022-09-04T12:23:26.275Z,52.78
2022-09-04T12:24:26.312Z,51.79
2022-09-04T12:25:26.094Z,50.31
2022-09-04T12:26:26.033Z,50.31
2022-09-04T12:27:26.168Z,50.81
2022-09-04T12:28:26.033Z,49.00
2022-09-04T12:29:25.999Z,50.48
2022-09-04T12:30:25.963Z,49.49
2022-09-04T12:31:26.344Z,49.69
2022-09-04T12:32:25.966Z,50.09
2022-09-04T12:33:26.079Z,50.18
2022-09-04T12:34:25.915Z,49.29
2022-09-04T12:35:31.170Z,49.59
2022-09-04T12:36:25.909Z,48.21
2022-09-04T12:37:25.911Z,48.01
2022-09-04T12:38:25.890Z,48.70
2022-09-04T12:39:25.952Z,48.60
2022-09-04T12:40:25.840Z,47.71
2022-09-04T12:41:25.922Z,47.61
2022-09-04T12:42:26.512Z,48.33
2022-09-04T12:43:26.264Z,48.13
2022-09-04T12:44:25.905Z,48.80
2022-09-04T12:45:25.841Z,47.53
2022-09-04T12:46:25.750Z,47.63
2022-09-04T12:47:25.787Z,48.13
2022-09-04T12:48:26.004Z,48.23
2022-09-04T12:49:25.718Z,48.82
2022-09-04T12:50:25.737Z,49.42
2022-09-04T12:51:25.732Z,50.01
2022-09-04T12:52:25.759Z,49.91